createdAt,value
2018-12-17T06:09:51.840Z,0.60
2018-12-17T06:12:20.225Z,0.60
2018-12-17T06:14:48.609Z,0.60
2018-12-17T06:23:09.664Z,0.60
2018-12-17T06:25:38.104Z,0.60
2018-12-17T06:28:06.470Z,0.60
2018-12-17T06:30:34.851Z,0.50
2018-12-17T06:33:03.260Z,0.50
2018-12-17T06:35:31.659Z,0.50
2018-12-17T06:38:00.019Z,0.60
2018-12-17T06:40:28.396Z,0.60
2018-12-17T06:42:56.790Z,0.50
2018-12-17T06:45:25.147Z,0.50
2018-12-17T06:47:53.528Z,0.50
2018-12-17T06:50:21.883Z,0.50
2018-12-17T06:52:50.275Z,0.40
2018-12-17T06:55:18.812Z,0.40
2018-12-17T06:57:47.660Z,0.40
2018-12-17T07:00:16.029Z,0.50
2018-12-17T07:02:44.399Z,0.50
2018-12-17T07:05:12.757Z,0.50
2018-12-17T07:07:41.149Z,0.60
2018-12-17T07:10:09.744Z,0.60
2018-12-17T07:12:38.145Z,0.60
2018-12-17T07:15:07.160Z,0.60
2018-12-17T07:17:35.527Z,0.50
2018-12-17T07:20:04.333Z,0.50
2018-12-17T07:22:32.710Z,0.50
2018-12-17T07:25:01.074Z,0.60
2018-12-17T07:27:29.459Z,0.50
2018-12-17T07:29:57.837Z,0.40
2018-12-17T07:32:26.232Z,0.30
2018-12-17T07:34:54.657Z,0.30
2018-12-17T07:37:23.109Z,0.20
2018-12-17T07:39:51.609Z,0.20
2018-12-17T07:42:20.013Z,0.20
2018-12-17T07:44:48.376Z,0.20
2018-12-17T07:47:16.782Z,0.20
2018-12-17T07:49:45.148Z,0.20
2018-12-17T07:52:13.552Z,0.20
2018-12-17T07:54:41.918Z,0.20
2018-12-17T07:57:10.316Z,0.20
2018-12-17T07:59:38.688Z,0.20
2018-12-17T08:02:07.092Z,0.20
2018-12-17T08:04:35.465Z,0.20
2018-12-17T08:07:03.849Z,0.30
2018-12-17T08:09:32.216Z,0.30
2018-12-17T08:12:00.592Z,0.40
2018-12-17T08:14:28.969Z,0.50
2018-12-17T08:16:57.691Z,0.50
2018-12-17T08:19:26.070Z,0.60
2018-12-17T08:21:54.437Z,0.60
2018-12-17T08:24:22.836Z,0.70
2018-12-17T08:26:51.220Z,0.80
2018-12-17T08:29:19.596Z,0.90
2018-12-17T08:31:47.977Z,0.90
2018-12-17T08:34:16.388Z,0.90
2018-12-17T08:36:44.748Z,1.00
2018-12-17T08:39:13.145Z,1.00
2018-12-17T08:41:41.513Z,1.20
2018-12-17T08:44:09.896Z,1.30
2018-12-17T08:46:38.311Z,1.30
2018-12-17T08:49:06.727Z,1.40
2018-12-17T08:51:35.079Z,1.50
2018-12-17T08:54:03.581Z,1.50
2018-12-17T08:56:31.944Z,1.50
2018-12-17T08:59:00.439Z,1.50
2018-12-17T09:01:28.823Z,1.60
2018-12-17T09:03:57.215Z,1.60
2018-12-17T09:06:25.577Z,1.70
2018-12-17T09:08:53.953Z,1.60
2018-12-17T09:11:22.314Z,1.70
2018-12-17T09:13:50.808Z,1.80
2018-12-17T09:16:19.176Z,2.00
2018-12-17T09:18:47.702Z,2.30
2018-12-17T09:21:20.599Z,2.50
2018-12-17T09:23:57.627Z,2.50
2018-12-17T09:26:26.076Z,2.40
2018-12-17T09:28:54.497Z,2.40
2018-12-17T09:31:22.951Z,2.60
2018-12-17T09:33:51.355Z,2.90
2018-12-17T09:36:19.733Z,3.20
2018-12-17T09:38:48.131Z,3.40
2018-12-17T09:41:16.541Z,3.70
2018-12-17T09:43:44.915Z,4.00
2018-12-17T09:46:13.319Z,4.40
2018-12-17T09:48:41.716Z,4.40
2018-12-17T09:51:10.100Z,4.70
2018-12-17T09:53:38.562Z,5.00
2018-12-17T09:56:06.975Z,5.30
2018-12-17T09:58:35.367Z,6.00
2018-12-17T10:01:03.921Z,5.80
2018-12-17T10:03:32.307Z,6.00
2018-12-17T10:06:00.728Z,6.00
2018-12-17T10:08:29.148Z,5.50
2018-12-17T10:10:57.552Z,5.90
2018-12-17T10:13:26.000Z,6.30
2018-12-17T10:15:54.413Z,6.30
2018-12-17T10:18:22.812Z,6.70
2018-12-17T10:20:51.324Z,6.50
2018-12-17T10:23:19.706Z,6.50
2018-12-17T10:25:48.102Z,6.20
2018-12-17T10:28:16.458Z,6.40
2018-12-17T10:30:44.873Z,6.80
2018-12-17T10:33:13.258Z,6.50
2018-12-17T10:35:41.652Z,6.70
2018-12-17T10:38:10.036Z,6.10
2018-12-17T10:40:39.416Z,6.20
2018-12-17T10:43:07.814Z,5.90
2018-12-17T10:45:36.196Z,5.30
2018-12-17T10:48:04.687Z,5.00
2018-12-17T10:50:33.067Z,5.00
2018-12-17T10:53:01.448Z,5.00
2018-12-17T10:55:29.845Z,4.90
2018-12-17T10:57:58.212Z,4.90
2018-12-17T11:00:32.013Z,4.90
2018-12-17T11:03:06.391Z,4.90
2018-12-17T11:05:36.300Z,4.80
2018-12-17T11:08:04.683Z,4.80
2018-12-17T11:10:33.072Z,4.90
2018-12-17T11:13:01.620Z,5.00
2018-12-17T11:15:30.025Z,5.10
2018-12-17T11:17:58.379Z,5.10
2018-12-17T11:20:26.887Z,5.20
2018-12-17T11:22:55.484Z,5.20
2018-12-17T11:25:23.873Z,5.50
2018-12-17T11:27:52.250Z,5.50
2018-12-17T11:30:20.677Z,5.60
2018-12-17T11:32:49.055Z,5.50
2018-12-17T11:35:17.491Z,5.50
2018-12-17T11:37:45.876Z,5.50
2018-12-17T11:40:14.261Z,5.60
2018-12-17T11:42:42.799Z,5.60
2018-12-17T11:45:11.198Z,5.50
2018-12-17T11:47:39.579Z,5.40
2018-12-17T11:50:08.494Z,5.40
2018-12-17T11:52:36.933Z,5.40
2018-12-17T11:55:05.935Z,5.50
2018-12-17T11:58:42.692Z,5.50
2018-12-17T12:01:11.603Z,5.50
2018-12-17T12:03:41.821Z,5.70
2018-12-17T12:06:13.911Z,5.80
2018-12-17T12:08:40.659Z,5.90
2018-12-17T12:11:09.182Z,6.00
2018-12-17T12:13:37.636Z,6.20
2018-12-17T12:16:06.058Z,6.20
2018-12-17T12:18:34.422Z,6.30
2018-12-17T12:21:02.807Z,6.20
2018-12-17T12:23:31.176Z,6.30
2018-12-17T12:25:59.548Z,6.30
2018-12-17T12:28:27.912Z,6.30
2018-12-17T12:31:00.425Z,6.20
2018-12-17T12:33:26.677Z,6.20
2018-12-17T12:35:55.055Z,6.20
2018-12-17T12:38:23.428Z,6.50
2018-12-17T12:40:51.804Z,6.50
2018-12-17T12:43:20.153Z,6.50
2018-12-17T12:45:48.535Z,6.30
2018-12-17T12:48:16.897Z,6.30
2018-12-17T12:50:45.289Z,6.40
2018-12-17T12:53:13.656Z,6.40
2018-12-17T12:55:42.035Z,6.40
2018-12-17T12:58:10.392Z,6.40
2018-12-17T13:00:38.775Z,6.60
2018-12-17T13:03:07.155Z,6.70
2018-12-17T13:05:35.516Z,6.80
2018-12-17T13:08:04.128Z,6.80
2018-12-17T13:10:32.479Z,6.80
2018-12-17T13:13:00.861Z,6.90
2018-12-17T13:15:29.207Z,6.80
2018-12-17T13:17:57.584Z,6.70
2018-12-17T13:20:25.939Z,6.70
2018-12-17T13:22:54.320Z,6.70
2018-12-17T13:25:31.670Z,6.60
2018-12-17T13:28:00.045Z,6.50
2018-12-17T13:30:28.400Z,6.50
2018-12-17T13:32:56.912Z,6.50
2018-12-17T13:35:25.405Z,6.50
2018-12-17T13:37:53.785Z,6.50
2018-12-17T13:40:22.154Z,6.60
2018-12-17T13:42:50.533Z,6.50
2018-12-17T13:45:18.891Z,6.60
2018-12-17T13:47:47.265Z,6.50
2018-12-17T13:50:20.845Z,6.60
2018-12-17T13:52:49.289Z,6.50
2018-12-17T13:55:17.667Z,6.40
2018-12-17T13:57:46.061Z,6.50
2018-12-17T14:00:14.524Z,6.30
2018-12-17T14:02:42.908Z,6.30
2018-12-17T14:05:11.279Z,6.30
2018-12-17T14:07:39.663Z,6.30
2018-12-17T14:10:15.266Z,6.20
2018-12-17T14:12:43.641Z,6.20
2018-12-17T14:15:12.008Z,6.50
2018-12-17T14:17:44.611Z,6.70
2018-12-17T14:20:18.355Z,6.60
2018-12-17T14:22:46.873Z,6.50
2018-12-17T14:25:15.255Z,6.20
2018-12-17T14:27:43.631Z,6.10
2018-12-17T14:30:12.108Z,5.90
2018-12-17T14:32:40.486Z,5.80
2018-12-17T14:35:08.985Z,5.80
2018-12-17T14:37:41.649Z,5.80
2018-12-17T14:40:10.240Z,5.70
2018-12-17T14:42:41.644Z,5.60
2018-12-17T14:45:10.332Z,5.60
2018-12-17T14:47:38.713Z,5.60
2018-12-17T14:50:07.200Z,5.50
2018-12-17T14:52:35.586Z,5.50
2018-12-17T14:55:04.488Z,5.50
2018-12-17T14:57:32.879Z,5.50
2018-12-17T15:00:01.238Z,5.40
2018-12-17T15:02:32.361Z,5.40
2018-12-17T15:05:00.840Z,5.40
2018-12-17T15:07:29.896Z,5.40
2018-12-17T15:09:58.315Z,5.40
2018-12-17T15:12:26.731Z,5.40
2018-12-17T15:14:55.639Z,5.40
2018-12-17T15:17:24.790Z,5.40
2018-12-17T15:19:53.564Z,5.40
2018-12-17T15:22:21.967Z,5.30
2018-12-17T15:24:50.340Z,5.40
2018-12-17T15:27:18.806Z,5.30
2018-12-17T15:29:47.295Z,5.30
2018-12-17T15:32:15.710Z,5.30
2018-12-17T15:34:44.112Z,5.20
2018-12-17T15:37:12.467Z,5.30
2018-12-17T15:39:40.848Z,5.30
2018-12-17T15:42:09.631Z,5.30
2018-12-17T15:44:39.114Z,5.30
2018-12-17T15:47:07.697Z,5.30
2018-12-17T15:49:36.059Z,5.30
2018-12-17T15:52:04.654Z,5.30
2018-12-17T15:54:33.159Z,5.20
2018-12-17T15:57:01.556Z,5.20
2018-12-17T15:59:30.211Z,5.20
2018-12-17T16:01:58.576Z,5.20
2018-12-17T16:04:26.951Z,5.20
2018-12-17T16:06:55.968Z,5.30
2018-12-17T16:09:24.397Z,5.30
2018-12-17T16:11:52.751Z,5.30
2018-12-17T16:14:21.116Z,5.40
2018-12-17T16:16:49.471Z,5.30
2018-12-17T16:19:17.837Z,5.20
2018-12-17T16:21:46.189Z,5.20
2018-12-17T16:24:16.647Z,5.30
2018-12-17T16:26:45.034Z,5.30
2018-12-17T16:29:13.405Z,5.30
2018-12-17T16:31:42.111Z,5.20
2018-12-17T16:34:10.519Z,5.20
2018-12-17T16:36:39.089Z,5.20
2018-12-17T16:39:07.886Z,5.20
2018-12-17T16:41:36.251Z,5.20
2018-12-17T16:44:04.630Z,5.20
2018-12-17T16:46:33.003Z,5.20
2018-12-17T16:49:01.377Z,5.10
2018-12-17T16:51:29.751Z,5.10
2018-12-17T16:53:58.132Z,5.10
2018-12-17T16:56:26.492Z,5.00
2018-12-17T16:58:54.971Z,5.00
2018-12-17T17:01:23.354Z,5.10
2018-12-17T17:04:04.119Z,5.00
2018-12-17T17:06:32.495Z,5.10
2018-12-17T17:09:00.855Z,5.10
2018-12-17T17:11:29.207Z,5.10
2018-12-17T17:13:57.590Z,5.10
2018-12-17T17:16:25.959Z,5.00
2018-12-17T17:18:54.363Z,5.00
2018-12-17T17:21:22.758Z,5.00
2018-12-17T17:23:51.174Z,5.00
2018-12-17T17:26:19.548Z,5.00
2018-12-17T17:28:47.891Z,5.00
2018-12-17T17:31:16.256Z,5.00
2018-12-17T17:33:44.627Z,5.20
2018-12-17T17:36:13.001Z,5.20
2018-12-17T17:38:41.352Z,5.20
2018-12-17T17:41:09.717Z,5.20
2018-12-17T17:43:38.081Z,5.10
2018-12-17T17:46:08.524Z,5.00
2018-12-17T17:48:36.876Z,5.00
2018-12-17T17:51:05.250Z,5.00
2018-12-17T17:53:33.610Z,5.10
2018-12-17T17:56:01.983Z,5.10
2018-12-17T17:58:30.444Z,5.10
2018-12-17T18:00:59.146Z,5.10
2018-12-17T18:03:27.503Z,5.20
2018-12-17T18:05:55.877Z,5.20
2018-12-17T18:08:24.230Z,5.20
2018-12-17T18:10:52.588Z,5.10
2018-12-17T18:13:20.952Z,5.10
2018-12-17T18:15:49.321Z,5.00
2018-12-17T18:18:18.533Z,5.00
2018-12-17T18:20:46.896Z,5.00
2018-12-17T18:23:15.249Z,5.30
2018-12-17T18:25:43.944Z,5.30
2018-12-17T18:28:12.300Z,5.40
2018-12-17T18:30:40.684Z,5.30
2018-12-17T18:33:09.070Z,5.30
2018-12-17T18:35:37.494Z,5.10
2018-12-17T18:38:05.948Z,5.20
2018-12-17T18:40:34.375Z,5.10
2018-12-17T18:43:02.808Z,5.10
2018-12-17T18:45:38.017Z,5.50
2018-12-17T18:48:14.533Z,5.70
2018-12-17T18:50:43.004Z,6.10
2018-12-17T18:53:18.967Z,6.00
2018-12-17T18:55:47.368Z,5.90
2018-12-17T18:58:15.768Z,6.10
2018-12-17T19:00:44.294Z,6.10
2018-12-17T19:05:58.686Z,6.20
2018-12-17T19:08:27.131Z,6.10
2018-12-17T19:10:55.564Z,6.00
2018-12-17T19:13:24.101Z,6.00
2018-12-17T19:15:52.692Z,5.90
2018-12-17T19:18:25.508Z,5.90
2018-12-17T19:20:54.928Z,5.80
2018-12-17T19:23:23.368Z,5.50
2018-12-17T19:25:51.808Z,5.50
2018-12-17T19:28:20.237Z,5.50
2018-12-17T19:30:50.810Z,5.50
2018-12-17T19:33:35.930Z,5.60
2018-12-17T19:36:04.392Z,5.40
2018-12-17T19:38:32.828Z,5.40
2018-12-17T19:41:01.319Z,5.50
2018-12-17T19:43:29.771Z,5.50
2018-12-17T19:45:58.238Z,5.40
2018-12-17T19:48:26.664Z,5.50
2018-12-17T19:50:55.086Z,5.40
2018-12-17T19:53:23.563Z,5.50
2018-12-17T19:55:52.019Z,5.50
2018-12-17T19:58:20.459Z,5.50
2018-12-17T20:00:49.213Z,5.50
2018-12-17T20:03:17.648Z,5.50
2018-12-17T20:05:46.731Z,5.40
2018-12-17T20:08:15.137Z,5.50
2018-12-17T20:10:43.577Z,5.50
2018-12-17T20:13:12.015Z,5.60
2018-12-17T20:15:40.573Z,5.60
2018-12-17T20:18:08.992Z,5.50
2018-12-17T20:20:37.483Z,5.40
2018-12-17T20:23:06.076Z,5.30
2018-12-17T20:25:34.512Z,5.30
2018-12-17T20:28:02.944Z,5.30
2018-12-17T20:30:31.472Z,5.20
2018-12-17T20:32:59.923Z,5.20
2018-12-17T20:35:28.512Z,5.20
2018-12-17T20:37:56.939Z,5.30
2018-12-17T20:40:25.492Z,5.20
2018-12-17T20:42:53.889Z,5.10
2018-12-17T20:45:22.325Z,5.10
2018-12-17T20:47:50.734Z,5.10
2018-12-17T20:50:19.184Z,5.20
2018-12-17T20:52:47.630Z,5.10
2018-12-17T20:55:16.079Z,5.20
2018-12-17T20:57:44.533Z,5.20
2018-12-17T21:00:13.100Z,5.30
2018-12-17T21:02:41.504Z,5.20
2018-12-17T21:05:10.005Z,5.00
2018-12-17T21:07:42.362Z,5.00
2018-12-17T21:10:10.903Z,4.90
2018-12-17T21:12:39.503Z,4.80
2018-12-17T21:15:08.149Z,4.80
2018-12-17T21:17:36.666Z,4.70
2018-12-17T21:20:05.376Z,5.10
2018-12-17T21:22:33.836Z,5.40
2018-12-17T21:25:02.263Z,5.40
2018-12-17T21:27:30.723Z,5.40
2018-12-17T21:29:59.128Z,5.40
2018-12-17T21:32:27.544Z,5.30
2018-12-17T21:34:55.956Z,5.20
2018-12-17T21:37:25.035Z,5.10
2018-12-17T21:39:53.535Z,5.00
2018-12-17T21:42:21.937Z,4.90
2018-12-17T21:44:50.335Z,4.90
2018-12-17T21:47:18.748Z,4.90
2018-12-17T21:49:47.131Z,4.90
2018-12-17T21:52:15.640Z,4.90
2018-12-17T21:54:44.069Z,4.90
2018-12-17T21:57:12.503Z,4.90
2018-12-17T21:59:40.880Z,4.90
2018-12-17T22:02:09.325Z,4.90
2018-12-17T22:04:37.736Z,4.90
2018-12-17T22:07:06.173Z,4.90
2018-12-17T22:09:34.568Z,4.80
2018-12-17T22:12:03.035Z,4.70
2018-12-17T22:14:31.520Z,4.70
2018-12-17T22:16:59.930Z,4.60
2018-12-17T22:19:28.482Z,4.70
2018-12-17T22:21:56.877Z,4.70
2018-12-17T22:24:25.268Z,4.80
2018-12-17T22:26:53.695Z,4.80
2018-12-17T22:29:22.043Z,4.80
2018-12-17T22:31:50.407Z,4.70
2018-12-17T22:34:18.765Z,4.90
2018-12-17T22:36:47.136Z,4.90
2018-12-17T22:39:15.585Z,4.90
2018-12-17T22:41:43.963Z,4.90
2018-12-17T22:44:12.320Z,4.80
2018-12-17T22:46:40.722Z,4.70
2018-12-17T22:49:09.097Z,4.70
2018-12-17T22:51:37.479Z,4.60
2018-12-17T22:54:05.839Z,4.60
2018-12-17T22:56:34.215Z,4.60
2018-12-17T22:59:02.583Z,4.60
2018-12-17T23:01:30.965Z,4.60
2018-12-17T23:03:59.331Z,4.60
2018-12-17T23:06:27.821Z,4.60
2018-12-17T23:09:07.763Z,4.70
2018-12-17T23:11:52.723Z,4.70
2018-12-17T23:14:32.222Z,4.60
2018-12-17T23:17:11.736Z,4.60
2018-12-17T23:19:42.547Z,4.60
2018-12-17T23:22:11.423Z,4.90
2018-12-17T23:24:39.890Z,4.90
2018-12-17T23:27:08.379Z,4.80
2018-12-17T23:29:36.723Z,4.90
2018-12-17T23:32:05.319Z,4.80
2018-12-17T23:34:33.688Z,4.70
2018-12-17T23:37:02.062Z,4.70
2018-12-17T23:39:30.430Z,4.70
2018-12-17T23:41:58.796Z,4.70
2018-12-17T23:44:27.296Z,4.90
2018-12-17T23:46:55.663Z,4.90
2018-12-17T23:49:24.027Z,4.90
2018-12-17T23:51:52.488Z,4.80
2018-12-17T23:54:20.868Z,4.80
2018-12-17T23:56:49.469Z,4.80
2018-12-17T23:59:17.843Z,4.70
